ADDS METAR Data INFO
IDs: Format: Raw Decoded Include TAF

Data at: 0628 UTC 15 Dec 2017

KXNA 150553Z AUTO 00000KT 10SM FEW050 M03/M05 A3013 RMK AO2 SLP211 T10281050 10022 21039 400671039 56003
KXNA 150502Z 31004KT 10SM FEW048 M02/M05 A3014
KXNA 150353Z 00000KT 10SM SCT055 M02/M04 A3014 RMK AO2 SLP213 T10171044
KXNA 150253Z 00000KT 10SM CLR M02/M05 A3015 RMK AO2 SLP216 T10171050 51010
KXNA 150153Z 27003KT 10SM CLR M01/M04 A3014 RMK AO2 SLP214 T10111044
KXNA 142253Z 32006KT 10SM OVC037 04/M04 A3009 RMK AO2 SLP195 T00391039
KXNA 142153Z 33006KT 10SM OVC040 04/M03 A3009 RMK AO2 SLP193 T00441033
KXNA 142053Z 33006KT 10SM OVC039 05/M03 A3008 RMK AO2 SLP189 T00501033 56005
KXNA 141953Z 35009KT 10SM OVC039 06/M04 A3008 RMK AO2 SLP190 T00561039
KXNA 141753Z 01007KT 10SM SCT036 06/M03 A3010 RMK AO2 SLP194 T00561033 10061 20011 50003
KXNA 141704Z 02014KT 10SM SKC 05/M04 A3011
KXNA 141553Z 04010KT 10SM CLR 04/M03 A3008 RMK AO2 SLP189 T00441028
KXNA 141453Z 36008KT 10SM CLR 03/M02 A3009 RMK AO2 SLP191 T00281022 53026
KXNA 141353Z 36006KT 10SM CLR 02/M02 A3005 RMK AO2 SLP180 T00171022
KXNA 141253Z 01007KT 10SM CLR 01/M03 A3002 RMK AO2 SLP169 T00111028
KXNA 141153Z 36006KT 10SM CLR 02/M02 A3001 RMK AO2 SLP163 T00221022 10056 20022 53016
KXNA 141053Z AUTO 01008KT 10SM CLR 04/M02 A2999 RMK AO2 SLP155 T00391022
KXNA 140953Z AUTO 02006KT 10SM CLR 04/M02 A2996 RMK AO2 SLP145 T00391017
KXNA 140853Z AUTO 02011KT 10SM CLR 05/M02 A2996 RMK AO2 SLP142 T00501017 53011
KXNA 140753Z AUTO 02004KT 10SM CLR 06/M02 A2994 RMK AO2 SLP136 T00561017
KXNA 140653Z AUTO 36006KT 10SM CLR 04/M02 A2993 RMK AO2 SLP134 T00441022
KXNA 140553Z AUTO 34007KT 10SM CLR 06/M03 A2992 RMK AO2 SLP131 T00561028 10083 20050 401501028 51014
KXNA 140453Z 33007KT 10SM CLR 06/M03 A2991 RMK AO2 SLP129 T00561033
KXNA 140353Z 31005KT 10SM CLR 07/M03 A2990 RMK AO2 SLP125 T00671033
KXNA 140253Z 31005KT 10SM CLR 08/M03 A2988 RMK AO2 SLP119 T00831028 51014
KXNA 140153Z 26008KT 10SM CLR 07/M03 A2987 RMK AO2 SLP116 T00671028
KXNA 132353Z 24004KT 10SM CLR 08/M03 A2984 RMK AO2 SLP109 T00781033 10150 20078 51004
KXNA 132253Z 25006KT 10SM CLR 11/M03 A2983 RMK AO2 SLP105 T01061028
KXNA 132153Z 29007KT 10SM CLR 14/M03 A2984 RMK AO2 SLP105 T01391033
KXNA 132053Z 29009KT 10SM CLR 14/M04 A2983 RMK AO2 SLP102 T01441039 56012
KXNA 131953Z 30010G16KT 10SM CLR 15/M03 A2983 RMK AO2 SLP103 T01501033
KXNA 131853Z 29009KT 10SM CLR 14/M03 A2984 RMK AO2 SLP106 T01391033